Saint Gregor, Canada
Current Conditions -  °F | °C
As of 12:00 PM on Friday 24 Oct 2014 (Local Time) from CYXE Reporting Station
Scattered Clouds Scattered Clouds  
Wind Chill: 52°   Ceiling: Unl
Heat Index: 52°   Visibility: 15mi
Dew Point: 32°   Wind: 24mph
Humidity: 47%   Direction: 300°WNW
Pressure: 29.76"   Gusts: 32mph
Location:  52.18°N, 104.83°W
Report Text: CYXE 241800Z 30021G28KT 15SM FEW080 SCT220 11/M00 A2976 RMK AC1CI3 SLP094 DENSITY ALT 1700FT
Loading
Personal Weather Stations






























Interactive Weather Map
Tropical Storm Tracking
New forecast layout! Learn more

10-Day Weather Forecast

Advertisements
Track Severe Weather on mobile